sensor_id;sensor_type;location;lat;lon;timestamp;P1;durP1;ratioP1;P2;durP2;ratioP2
23496;SDS011;11925;48.122;11.560;2024-03-06T00:01:29;12.73;;;8.40;;
23496;SDS011;11925;48.122;11.560;2024-03-06T00:04:00;11.32;;;7.60;;
23496;SDS011;11925;48.122;11.560;2024-03-06T00:06:28;15.02;;;8.50;;
23496;SDS011;11925;48.122;11.560;2024-03-06T00:08:57;12.82;;;8.98;;
23496;SDS011;11925;48.122;11.560;2024-03-06T00:11:26;12.40;;;8.85;;
23496;SDS011;11925;48.122;11.560;2024-03-06T00:13:55;13.48;;;8.82;;
23496;SDS011;11925;48.122;11.560;2024-03-06T00:16:23;12.43;;;8.60;;
23496;SDS011;11925;48.122;11.560;2024-03-06T00:18:53;13.35;;;8.38;;
23496;SDS011;11925;48.122;11.560;2024-03-06T00:21:23;13.32;;;8.88;;
23496;SDS011;11925;48.122;11.560;2024-03-06T00:23:52;11.77;;;7.70;;
23496;SDS011;11925;48.122;11.560;2024-03-06T00:26:21;13.00;;;8.48;;
23496;SDS011;11925;48.122;11.560;2024-03-06T00:28:49;14.90;;;8.63;;
23496;SDS011;11925;48.122;11.560;2024-03-06T00:31:18;12.90;;;8.00;;
23496;SDS011;11925;48.122;11.560;2024-03-06T00:33:47;11.30;;;7.45;;
23496;SDS011;11925;48.122;11.560;2024-03-06T00:36:15;13.95;;;8.43;;
23496;SDS011;11925;48.122;11.560;2024-03-06T00:38:45;10.93;;;7.95;;
23496;SDS011;11925;48.122;11.560;2024-03-06T00:41:14;13.25;;;8.60;;
23496;SDS011;11925;48.122;11.560;2024-03-06T00:43:43;12.48;;;8.68;;
23496;SDS011;11925;48.122;11.560;2024-03-06T00:46:11;12.65;;;7.88;;
23496;SDS011;11925;48.122;11.560;2024-03-06T00:48:40;12.25;;;8.07;;
23496;SDS011;11925;48.122;11.560;2024-03-06T00:51:09;12.48;;;8.93;;
23496;SDS011;11925;48.122;11.560;2024-03-06T00:53:37;10.77;;;7.32;;
23496;SDS011;11925;48.122;11.560;2024-03-06T00:56:08;11.45;;;8.20;;
23496;SDS011;11925;48.122;11.560;2024-03-06T00:58:36;12.18;;;7.93;;
23496;SDS011;11925;48.122;11.560;2024-03-06T01:01:05;11.88;;;7.78;;
23496;SDS011;11925;48.122;11.560;2024-03-06T01:03:34;13.95;;;8.95;;
23496;SDS011;11925;48.122;11.560;2024-03-06T01:06:03;11.00;;;8.23;;
23496;SDS011;11925;48.122;11.560;2024-03-06T01:08:31;12.20;;;8.48;;
23496;SDS011;11925;48.122;11.560;2024-03-06T01:11:00;10.15;;;7.47;;
23496;SDS011;11925;48.122;11.560;2024-03-06T01:13:32;11.13;;;7.65;;
23496;SDS011;11925;48.122;11.560;2024-03-06T01:16:01;10.50;;;7.10;;
23496;SDS011;11925;48.122;11.560;2024-03-06T01:18:29;10.77;;;7.70;;
23496;SDS011;11925;48.122;11.560;2024-03-06T01:20:58;11.15;;;7.47;;
23496;SDS011;11925;48.122;11.560;2024-03-06T01:23:27;11.93;;;7.95;;
23496;SDS011;11925;48.122;11.560;2024-03-06T01:25:56;12.55;;;7.70;;
23496;SDS011;11925;48.122;11.560;2024-03-06T01:28:24;10.60;;;7.65;;
23496;SDS011;11925;48.122;11.560;2024-03-06T01:30:55;10.68;;;8.23;;
23496;SDS011;11925;48.122;11.560;2024-03-06T01:33:25;10.68;;;7.32;;
23496;SDS011;11925;48.122;11.560;2024-03-06T01:35:54;11.00;;;7.32;;
23496;SDS011;11925;48.122;11.560;2024-03-06T01:38:22;10.90;;;7.45;;
23496;SDS011;11925;48.122;11.560;2024-03-06T01:40:51;10.93;;;7.85;;
23496;SDS011;11925;48.122;11.560;2024-03-06T01:43:20;11.02;;;7.43;;
23496;SDS011;11925;48.122;11.560;2024-03-06T01:45:49;9.77;;;6.97;;
23496;SDS011;11925;48.122;11.560;2024-03-06T01:48:21;12.40;;;7.63;;
23496;SDS011;11925;48.122;11.560;2024-03-06T01:50:52;11.20;;;7.70;;
23496;SDS011;11925;48.122;11.560;2024-03-06T01:53:21;10.80;;;7.22;;
23496;SDS011;11925;48.122;11.560;2024-03-06T01:55:51;10.40;;;7.30;;
23496;SDS011;11925;48.122;11.560;2024-03-06T01:58:20;10.68;;;6.90;;
23496;SDS011;11925;48.122;11.560;2024-03-06T02:00:49;10.35;;;7.43;;
23496;SDS011;11925;48.122;11.560;2024-03-06T02:03:21;10.50;;;7.10;;
23496;SDS011;11925;48.122;11.560;2024-03-06T02:05:52;10.30;;;7.32;;
23496;SDS011;11925;48.122;11.560;2024-03-06T02:08:21;10.80;;;7.70;;
23496;SDS011;11925;48.122;11.560;2024-03-06T02:10:50;10.45;;;7.13;;
23496;SDS011;11925;48.122;11.560;2024-03-06T02:13:18;9.13;;;6.82;;
23496;SDS011;11925;48.122;11.560;2024-03-06T02:15:47;10.32;;;7.20;;
23496;SDS011;11925;48.122;11.560;2024-03-06T02:18:16;11.10;;;7.70;;
23496;SDS011;11925;48.122;11.560;2024-03-06T02:20:46;11.32;;;7.68;;
23496;SDS011;11925;48.122;11.560;2024-03-06T02:23:17;12.85;;;7.93;;
23496;SDS011;11925;48.122;11.560;2024-03-06T02:25:47;13.35;;;8.07;;
23496;SDS011;11925;48.122;11.560;2024-03-06T02:28:16;13.23;;;8.57;;
23496;SDS011;11925;48.122;11.560;2024-03-06T02:30:49;12.27;;;8.18;;
23496;SDS011;11925;48.122;11.560;2024-03-06T02:33:18;12.48;;;7.97;;
23496;SDS011;11925;48.122;11.560;2024-03-06T02:35:48;13.68;;;8.90;;
23496;SDS011;11925;48.122;11.560;2024-03-06T02:38:17;13.23;;;8.63;;
23496;SDS011;11925;48.122;11.560;2024-03-06T02:40:45;14.75;;;9.13;;
23496;SDS011;11925;48.122;11.560;2024-03-06T02:43:14;11.45;;;8.20;;
23496;SDS011;11925;48.122;11.560;2024-03-06T02:45:43;14.35;;;9.40;;
23496;SDS011;11925;48.122;11.560;2024-03-06T02:48:12;13.85;;;9.20;;
23496;SDS011;11925;48.122;11.560;2024-03-06T02:50:40;14.73;;;9.25;;
23496;SDS011;11925;48.122;11.560;2024-03-06T02:53:10;17.63;;;9.82;;
23496;SDS011;11925;48.122;11.560;2024-03-06T02:55:39;15.70;;;9.38;;
23496;SDS011;11925;48.122;11.560;2024-03-06T02:58:08;13.15;;;8.85;;
23496;SDS011;11925;48.122;11.560;2024-03-06T03:00:39;14.80;;;9.32;;
23496;SDS011;11925;48.122;11.560;2024-03-06T03:03:08;18.38;;;9.55;;
23496;SDS011;11925;48.122;11.560;2024-03-06T03:05:38;10.57;;;6.90;;
23496;SDS011;11925;48.122;11.560;2024-03-06T03:08:07;8.82;;;5.22;;
23496;SDS011;11925;48.122;11.560;2024-03-06T03:10:37;5.88;;;3.45;;
23496;SDS011;11925;48.122;11.560;2024-03-06T03:13:06;4.93;;;3.13;;
23496;SDS011;11925;48.122;11.560;2024-03-06T03:15:35;3.80;;;2.20;;
23496;SDS011;11925;48.122;11.560;2024-03-06T03:18:03;2.67;;;1.80;;
23496;SDS011;11925;48.122;11.560;2024-03-06T03:20:32;3.30;;;1.83;;
23496;SDS011;11925;48.122;11.560;2024-03-06T03:23:02;3.00;;;1.50;;
23496;SDS011;11925;48.122;11.560;2024-03-06T03:25:32;2.78;;;1.40;;
23496;SDS011;11925;48.122;11.560;2024-03-06T03:28:02;1.48;;;1.00;;
23496;SDS011;11925;48.122;11.560;2024-03-06T03:30:31;1.40;;;1.08;;
23496;SDS011;11925;48.122;11.560;2024-03-06T03:33:00;1.70;;;1.00;;
23496;SDS011;11925;48.122;11.560;2024-03-06T03:35:29;1.10;;;0.73;;
23496;SDS011;11925;48.122;11.560;2024-03-06T03:37:58;1.55;;;0.75;;
23496;SDS011;11925;48.122;11.560;2024-03-06T03:40:27;2.05;;;1.10;;
23496;SDS011;11925;48.122;11.560;2024-03-06T03:42:56;1.15;;;0.70;;
23496;SDS011;11925;48.122;11.560;2024-03-06T03:45:26;1.52;;;0.80;;
23496;SDS011;11925;48.122;11.560;2024-03-06T03:47:55;1.25;;;0.70;;
23496;SDS011;11925;48.122;11.560;2024-03-06T03:50:24;1.40;;;0.73;;
23496;SDS011;11925;48.122;11.560;2024-03-06T03:52:52;1.50;;;1.13;;
23496;SDS011;11925;48.122;11.560;2024-03-06T03:55:21;1.58;;;0.80;;
23496;SDS011;11925;48.122;11.560;2024-03-06T03:57:50;1.17;;;0.85;;
23496;SDS011;11925;48.122;11.560;2024-03-06T04:00:19;0.90;;;0.70;;
23496;SDS011;11925;48.122;11.560;2024-03-06T04:02:50;1.63;;;0.82;;
23496;SDS011;11925;48.122;11.560;2024-03-06T04:05:19;1.98;;;0.63;;
23496;SDS011;11925;48.122;11.560;2024-03-06T04:07:49;1.08;;;0.75;;
23496;SDS011;11925;48.122;11.560;2024-03-06T04:10:18;1.65;;;1.00;;
23496;SDS011;11925;48.122;11.560;2024-03-06T04:12:47;1.25;;;1.00;;
23496;SDS011;11925;48.122;11.560;2024-03-06T04:15:16;1.38;;;0.82;;
23496;SDS011;11925;48.122;11.560;2024-03-06T04:17:45;1.23;;;0.80;;
23496;SDS011;11925;48.122;11.560;2024-03-06T04:20:15;1.08;;;0.90;;
23496;SDS011;11925;48.122;11.560;2024-03-06T04:22:44;1.23;;;0.90;;
23496;SDS011;11925;48.122;11.560;2024-03-06T04:25:14;1.30;;;0.88;;
23496;SDS011;11925;48.122;11.560;2024-03-06T04:27:43;1.08;;;0.82;;
23496;SDS011;11925;48.122;11.560;2024-03-06T04:30:12;1.23;;;0.88;;
23496;SDS011;11925;48.122;11.560;2024-03-06T04:32:41;1.13;;;0.70;;
23496;SDS011;11925;48.122;11.560;2024-03-06T04:35:10;1.02;;;0.80;;
23496;SDS011;11925;48.122;11.560;2024-03-06T04:37:41;1.75;;;1.02;;
23496;SDS011;11925;48.122;11.560;2024-03-06T04:40:11;1.85;;;0.98;;
23496;SDS011;11925;48.122;11.560;2024-03-06T04:42:41;1.77;;;0.82;;
23496;SDS011;11925;48.122;11.560;2024-03-06T04:45:10;1.52;;;0.80;;
23496;SDS011;11925;48.122;11.560;2024-03-06T04:47:39;2.40;;;1.02;;
23496;SDS011;11925;48.122;11.560;2024-03-06T04:50:08;1.60;;;0.90;;
23496;SDS011;11925;48.122;11.560;2024-03-06T04:52:38;1.00;;;0.80;;
23496;SDS011;11925;48.122;11.560;2024-03-06T04:55:08;1.48;;;1.00;;
23496;SDS011;11925;48.122;11.560;2024-03-06T04:57:38;1.35;;;0.85;;
23496;SDS011;11925;48.122;11.560;2024-03-06T05:00:08;1.92;;;0.77;;
23496;SDS011;11925;48.122;11.560;2024-03-06T05:02:37;1.70;;;0.98;;
23496;SDS011;11925;48.122;11.560;2024-03-06T05:05:25;2.08;;;1.05;;
23496;SDS011;11925;48.122;11.560;2024-03-06T05:08:11;2.15;;;1.20;;
23496;SDS011;11925;48.122;11.560;2024-03-06T05:10:59;1.85;;;1.10;;
23496;SDS011;11925;48.122;11.560;2024-03-06T05:13:46;2.92;;;1.30;;
23496;SDS011;11925;48.122;11.560;2024-03-06T05:16:32;1.65;;;0.90;;
23496;SDS011;11925;48.122;11.560;2024-03-06T05:19:18;2.33;;;1.00;;
23496;SDS011;11925;48.122;11.560;2024-03-06T05:22:05;1.50;;;0.93;;
23496;SDS011;11925;48.122;11.560;2024-03-06T05:24:51;1.60;;;1.08;;
23496;SDS011;11925;48.122;11.560;2024-03-06T05:27:39;2.10;;;0.95;;
23496;SDS011;11925;48.122;11.560;2024-03-06T05:30:25;1.92;;;1.30;;
23496;SDS011;11925;48.122;11.560;2024-03-06T05:33:12;1.30;;;0.95;;
23496;SDS011;11925;48.122;11.560;2024-03-06T05:35:59;1.30;;;1.00;;
23496;SDS011;11925;48.122;11.560;2024-03-06T05:38:45;1.70;;;0.98;;
23496;SDS011;11925;48.122;11.560;2024-03-06T05:41:32;1.67;;;1.00;;
23496;SDS011;11925;48.122;11.560;2024-03-06T05:44:20;1.38;;;0.88;;
23496;SDS011;11925;48.122;11.560;2024-03-06T05:47:06;1.95;;;1.23;;
23496;SDS011;11925;48.122;11.560;2024-03-06T05:49:52;1.80;;;1.25;;
23496;SDS011;11925;48.122;11.560;2024-03-06T05:52:38;1.67;;;1.10;;
23496;SDS011;11925;48.122;11.560;2024-03-06T05:55:25;2.50;;;1.23;;
23496;SDS011;11925;48.122;11.560;2024-03-06T05:58:11;1.40;;;1.02;;
23496;SDS011;11925;48.122;11.560;2024-03-06T06:00:44;1.33;;;0.88;;
23496;SDS011;11925;48.122;11.560;2024-03-06T06:03:13;1.60;;;1.02;;
23496;SDS011;11925;48.122;11.560;2024-03-06T06:05:42;2.35;;;1.10;;
23496;SDS011;11925;48.122;11.560;2024-03-06T06:08:11;1.55;;;1.13;;
23496;SDS011;11925;48.122;11.560;2024-03-06T06:10:39;3.22;;;1.38;;
23496;SDS011;11925;48.122;11.560;2024-03-06T06:13:08;2.03;;;1.20;;
23496;SDS011;11925;48.122;11.560;2024-03-06T06:15:37;1.63;;;1.20;;
23496;SDS011;11925;48.122;11.560;2024-03-06T06:18:07;1.73;;;1.00;;
23496;SDS011;11925;48.122;11.560;2024-03-06T06:20:36;2.10;;;1.10;;
23496;SDS011;11925;48.122;11.560;2024-03-06T06:23:08;1.92;;;1.10;;
23496;SDS011;11925;48.122;11.560;2024-03-06T06:25:36;2.55;;;1.10;;
23496;SDS011;11925;48.122;11.560;2024-03-06T06:28:05;2.88;;;1.42;;
23496;SDS011;11925;48.122;11.560;2024-03-06T06:30:36;2.13;;;1.35;;
23496;SDS011;11925;48.122;11.560;2024-03-06T06:33:07;2.13;;;1.15;;
23496;SDS011;11925;48.122;11.560;2024-03-06T06:35:36;1.73;;;1.10;;
23496;SDS011;11925;48.122;11.560;2024-03-06T06:38:05;1.95;;;1.20;;
23496;SDS011;11925;48.122;11.560;2024-03-06T06:40:34;1.52;;;1.25;;
23496;SDS011;11925;48.122;11.560;2024-03-06T06:43:03;2.17;;;1.48;;
23496;SDS011;11925;48.122;11.560;2024-03-06T06:45:32;2.55;;;1.30;;
23496;SDS011;11925;48.122;11.560;2024-03-06T06:48:00;2.47;;;1.65;;
23496;SDS011;11925;48.122;11.560;2024-03-06T06:50:31;2.83;;;1.63;;
23496;SDS011;11925;48.122;11.560;2024-03-06T06:53:00;5.05;;;2.08;;
23496;SDS011;11925;48.122;11.560;2024-03-06T06:55:29;2.75;;;1.90;;
23496;SDS011;11925;48.122;11.560;2024-03-06T06:57:57;2.75;;;1.92;;
23496;SDS011;11925;48.122;11.560;2024-03-06T07:00:26;4.85;;;2.00;;
23496;SDS011;11925;48.122;11.560;2024-03-06T07:02:57;3.60;;;1.90;;
23496;SDS011;11925;48.122;11.560;2024-03-06T07:05:26;7.15;;;3.50;;
23496;SDS011;11925;48.122;11.560;2024-03-06T07:07:56;5.65;;;2.88;;
23496;SDS011;11925;48.122;11.560;2024-03-06T07:10:25;3.72;;;2.00;;
23496;SDS011;11925;48.122;11.560;2024-03-06T07:12:54;5.20;;;2.83;;
23496;SDS011;11925;48.122;11.560;2024-03-06T07:15:22;3.67;;;2.10;;
23496;SDS011;11925;48.122;11.560;2024-03-06T07:17:51;3.80;;;2.10;;
23496;SDS011;11925;48.122;11.560;2024-03-06T07:20:20;3.72;;;2.05;;
23496;SDS011;11925;48.122;11.560;2024-03-06T07:22:49;8.43;;;4.10;;
23496;SDS011;11925;48.122;11.560;2024-03-06T07:25:19;3.83;;;2.25;;
23496;SDS011;11925;48.122;11.560;2024-03-06T07:27:48;2.83;;;1.75;;
23496;SDS011;11925;48.122;11.560;2024-03-06T07:30:17;2.78;;;2.00;;
23496;SDS011;11925;48.122;11.560;2024-03-06T07:32:45;3.40;;;1.77;;
23496;SDS011;11925;48.122;11.560;2024-03-06T07:35:14;3.72;;;1.65;;
23496;SDS011;11925;48.122;11.560;2024-03-06T07:37:44;3.42;;;1.80;;
23496;SDS011;11925;48.122;11.560;2024-03-06T07:40:13;3.65;;;1.80;;
23496;SDS011;11925;48.122;11.560;2024-03-06T07:42:43;2.40;;;1.40;;
23496;SDS011;11925;48.122;11.560;2024-03-06T07:45:12;2.95;;;1.40;;
23496;SDS011;11925;48.122;11.560;2024-03-06T07:47:41;2.47;;;1.80;;
23496;SDS011;11925;48.122;11.560;2024-03-06T07:50:10;2.78;;;1.70;;
23496;SDS011;11925;48.122;11.560;2024-03-06T07:52:39;3.03;;;1.50;;
23496;SDS011;11925;48.122;11.560;2024-03-06T07:55:08;3.00;;;1.35;;
23496;SDS011;11925;48.122;11.560;2024-03-06T07:57:37;2.42;;;1.30;;
23496;SDS011;11925;48.122;11.560;2024-03-06T08:00:09;2.83;;;1.60;;
23496;SDS011;11925;48.122;11.560;2024-03-06T08:02:41;2.80;;;1.80;;
23496;SDS011;11925;48.122;11.560;2024-03-06T08:05:10;2.28;;;1.23;;
23496;SDS011;11925;48.122;11.560;2024-03-06T08:07:40;3.17;;;1.60;;
23496;SDS011;11925;48.122;11.560;2024-03-06T08:10:09;2.50;;;1.40;;
23496;SDS011;11925;48.122;11.560;2024-03-06T08:12:40;1.75;;;1.08;;
23496;SDS011;11925;48.122;11.560;2024-03-06T08:15:11;1.85;;;1.50;;
23496;SDS011;11925;48.122;11.560;2024-03-06T08:17:40;1.85;;;1.30;;
23496;SDS011;11925;48.122;11.560;2024-03-06T08:20:10;2.40;;;1.38;;
23496;SDS011;11925;48.122;11.560;2024-03-06T08:22:39;2.80;;;1.10;;
23496;SDS011;11925;48.122;11.560;2024-03-06T08:25:09;3.35;;;1.50;;
23496;SDS011;11925;48.122;11.560;2024-03-06T08:27:39;2.38;;;1.67;;
23496;SDS011;11925;48.122;11.560;2024-03-06T08:30:08;3.60;;;1.30;;
23496;SDS011;11925;48.122;11.560;2024-03-06T08:32:39;2.83;;;1.65;;
23496;SDS011;11925;48.122;11.560;2024-03-06T08:35:11;2.15;;;1.13;;
23496;SDS011;11925;48.122;11.560;2024-03-06T08:37:45;2.53;;;1.30;;
23496;SDS011;11925;48.122;11.560;2024-03-06T08:40:14;3.03;;;1.73;;
23496;SDS011;11925;48.122;11.560;2024-03-06T08:42:44;5.47;;;2.97;;
23496;SDS011;11925;48.122;11.560;2024-03-06T08:45:14;3.63;;;2.15;;
23496;SDS011;11925;48.122;11.560;2024-03-06T08:47:44;3.20;;;2.17;;
23496;SDS011;11925;48.122;11.560;2024-03-06T08:50:14;3.42;;;1.80;;
23496;SDS011;11925;48.122;11.560;2024-03-06T08:52:44;4.22;;;1.92;;
23496;SDS011;11925;48.122;11.560;2024-03-06T08:55:13;3.70;;;1.40;;
23496;SDS011;11925;48.122;11.560;2024-03-06T08:57:42;1.98;;;1.23;;
23496;SDS011;11925;48.122;11.560;2024-03-06T09:00:12;2.67;;;1.45;;
23496;SDS011;11925;48.122;11.560;2024-03-06T09:02:41;2.15;;;1.50;;
23496;SDS011;11925;48.122;11.560;2024-03-06T09:05:11;2.00;;;1.45;;
23496;SDS011;11925;48.122;11.560;2024-03-06T09:07:40;2.92;;;1.50;;
23496;SDS011;11925;48.122;11.560;2024-03-06T09:10:09;2.67;;;1.63;;
23496;SDS011;11925;48.122;11.560;2024-03-06T09:12:38;3.95;;;1.50;;
23496;SDS011;11925;48.122;11.560;2024-03-06T09:15:07;3.08;;;1.50;;
23496;SDS011;11925;48.122;11.560;2024-03-06T09:17:38;2.40;;;1.50;;
23496;SDS011;11925;48.122;11.560;2024-03-06T09:20:08;1.80;;;1.30;;
23496;SDS011;11925;48.122;11.560;2024-03-06T09:22:40;2.38;;;1.70;;
23496;SDS011;11925;48.122;11.560;2024-03-06T09:25:10;5.00;;;1.70;;
23496;SDS011;11925;48.122;11.560;2024-03-06T09:27:41;3.08;;;2.15;;
23496;SDS011;11925;48.122;11.560;2024-03-06T09:30:10;4.57;;;2.10;;
23496;SDS011;11925;48.122;11.560;2024-03-06T09:32:40;2.00;;;1.30;;
23496;SDS011;11925;48.122;11.560;2024-03-06T09:35:11;3.53;;;1.90;;
23496;SDS011;11925;48.122;11.560;2024-03-06T09:37:46;3.55;;;1.38;;
23496;SDS011;11925;48.122;11.560;2024-03-06T09:40:21;2.38;;;1.50;;
23496;SDS011;11925;48.122;11.560;2024-03-06T09:42:50;3.45;;;1.80;;
23496;SDS011;11925;48.122;11.560;2024-03-06T09:45:19;2.50;;;1.30;;
23496;SDS011;11925;48.122;11.560;2024-03-06T09:47:49;3.25;;;1.15;;
23496;SDS011;11925;48.122;11.560;2024-03-06T09:50:19;2.88;;;1.38;;
23496;SDS011;11925;48.122;11.560;2024-03-06T09:52:53;3.10;;;1.42;;
23496;SDS011;11925;48.122;11.560;2024-03-06T09:55:23;2.92;;;1.40;;
23496;SDS011;11925;48.122;11.560;2024-03-06T09:57:54;2.70;;;1.45;;
23496;SDS011;11925;48.122;11.560;2024-03-06T10:00:23;3.08;;;1.80;;
23496;SDS011;11925;48.122;11.560;2024-03-06T10:02:54;2.50;;;1.20;;
23496;SDS011;11925;48.122;11.560;2024-03-06T10:05:25;2.50;;;1.00;;
23496;SDS011;11925;48.122;11.560;2024-03-06T10:07:56;1.65;;;0.73;;
23496;SDS011;11925;48.122;11.560;2024-03-06T10:10:26;1.48;;;0.90;;
23496;SDS011;11925;48.122;11.560;2024-03-06T10:12:55;1.45;;;0.70;;
23496;SDS011;11925;48.122;11.560;2024-03-06T10:15:29;1.88;;;0.80;;
23496;SDS011;11925;48.122;11.560;2024-03-06T10:18:15;1.50;;;0.93;;
23496;SDS011;11925;48.122;11.560;2024-03-06T10:20:45;3.63;;;1.15;;
23496;SDS011;11925;48.122;11.560;2024-03-06T10:23:16;1.38;;;0.80;;
23496;SDS011;11925;48.122;11.560;2024-03-06T10:25:46;2.40;;;0.82;;
23496;SDS011;11925;48.122;11.560;2024-03-06T10:28:18;1.90;;;1.00;;
23496;SDS011;11925;48.122;11.560;2024-03-06T10:30:47;1.48;;;0.88;;
23496;SDS011;11925;48.122;11.560;2024-03-06T10:33:16;1.73;;;1.00;;
23496;SDS011;11925;48.122;11.560;2024-03-06T10:35:46;3.25;;;1.30;;
23496;SDS011;11925;48.122;11.560;2024-03-06T10:38:19;1.92;;;1.13;;
23496;SDS011;11925;48.122;11.560;2024-03-06T10:40:48;2.10;;;1.02;;
23496;SDS011;11925;48.122;11.560;2024-03-06T10:43:20;3.20;;;1.80;;
23496;SDS011;11925;48.122;11.560;2024-03-06T10:45:50;3.70;;;1.45;;
23496;SDS011;11925;48.122;11.560;2024-03-06T10:48:19;4.40;;;2.00;;
23496;SDS011;11925;48.122;11.560;2024-03-06T10:50:48;3.67;;;1.95;;
23496;SDS011;11925;48.122;11.560;2024-03-06T10:53:19;3.08;;;1.38;;
23496;SDS011;11925;48.122;11.560;2024-03-06T10:55:52;3.28;;;1.80;;
23496;SDS011;11925;48.122;11.560;2024-03-06T10:58:21;2.28;;;1.52;;
23496;SDS011;11925;48.122;11.560;2024-03-06T11:00:50;3.65;;;2.20;;
23496;SDS011;11925;48.122;11.560;2024-03-06T11:03:19;2.65;;;1.67;;
23496;SDS011;11925;48.122;11.560;2024-03-06T11:05:50;3.38;;;2.00;;
23496;SDS011;11925;48.122;11.560;2024-03-06T11:08:20;4.07;;;1.88;;
23496;SDS011;11925;48.122;11.560;2024-03-06T11:10:49;2.47;;;1.40;;
23496;SDS011;11925;48.122;11.560;2024-03-06T11:13:23;2.58;;;1.50;;
23496;SDS011;11925;48.122;11.560;2024-03-06T11:15:53;2.85;;;1.80;;
23496;SDS011;11925;48.122;11.560;2024-03-06T11:18:41;3.15;;;2.00;;
23496;SDS011;11925;48.122;11.560;2024-03-06T11:21:29;3.72;;;1.90;;
23496;SDS011;11925;48.122;11.560;2024-03-06T11:24:15;3.53;;;1.88;;
23496;SDS011;11925;48.122;11.560;2024-03-06T11:26:47;2.70;;;1.70;;
23496;SDS011;11925;48.122;11.560;2024-03-06T11:29:16;2.78;;;1.10;;
23496;SDS011;11925;48.122;11.560;2024-03-06T11:32:02;2.40;;;1.02;;
23496;SDS011;11925;48.122;11.560;2024-03-06T11:34:33;2.80;;;1.10;;
23496;SDS011;11925;48.122;11.560;2024-03-06T11:37:05;1.80;;;1.17;;
23496;SDS011;11925;48.122;11.560;2024-03-06T11:39:38;2.30;;;1.20;;
23496;SDS011;11925;48.122;11.560;2024-03-06T11:42:08;3.45;;;1.60;;
23496;SDS011;11925;48.122;11.560;2024-03-06T11:44:51;1.75;;;1.20;;
23496;SDS011;11925;48.122;11.560;2024-03-06T11:47:21;2.22;;;1.45;;
23496;SDS011;11925;48.122;11.560;2024-03-06T11:49:50;2.38;;;1.50;;
23496;SDS011;11925;48.122;11.560;2024-03-06T11:52:20;2.45;;;1.38;;
23496;SDS011;11925;48.122;11.560;2024-03-06T11:54:51;2.10;;;1.50;;
23496;SDS011;11925;48.122;11.560;2024-03-06T11:57:21;2.15;;;1.30;;
23496;SDS011;11925;48.122;11.560;2024-03-06T11:59:51;2.95;;;1.50;;
23496;SDS011;11925;48.122;11.560;2024-03-06T12:02:21;2.45;;;1.48;;
23496;SDS011;11925;48.122;11.560;2024-03-06T12:04:50;2.53;;;1.55;;
23496;SDS011;11925;48.122;11.560;2024-03-06T12:07:20;2.55;;;1.30;;
23496;SDS011;11925;48.122;11.560;2024-03-06T12:09:51;2.42;;;1.42;;
23496;SDS011;11925;48.122;11.560;2024-03-06T12:12:20;3.17;;;1.75;;
23496;SDS011;11925;48.122;11.560;2024-03-06T12:14:56;2.47;;;1.33;;
23496;SDS011;11925;48.122;11.560;2024-03-06T12:17:26;3.03;;;1.83;;
23496;SDS011;11925;48.122;11.560;2024-03-06T12:19:55;3.45;;;1.80;;
23496;SDS011;11925;48.122;11.560;2024-03-06T12:22:24;2.95;;;1.70;;
23496;SDS011;11925;48.122;11.560;2024-03-06T12:24:59;2.28;;;1.40;;
23496;SDS011;11925;48.122;11.560;2024-03-06T12:27:28;2.72;;;1.50;;
23496;SDS011;11925;48.122;11.560;2024-03-06T12:29:59;2.45;;;1.58;;
23496;SDS011;11925;48.122;11.560;2024-03-06T12:32:31;3.75;;;1.80;;
23496;SDS011;11925;48.122;11.560;2024-03-06T12:35:01;3.13;;;1.90;;
23496;SDS011;11925;48.122;11.560;2024-03-06T12:37:30;3.58;;;2.05;;
23496;SDS011;11925;48.122;11.560;2024-03-06T12:40:01;2.88;;;1.67;;
23496;SDS011;11925;48.122;11.560;2024-03-06T12:42:31;2.95;;;1.88;;
23496;SDS011;11925;48.122;11.560;2024-03-06T12:45:00;3.17;;;1.80;;
23496;SDS011;11925;48.122;11.560;2024-03-06T12:47:30;2.95;;;1.63;;
23496;SDS011;11925;48.122;11.560;2024-03-06T12:49:58;2.30;;;1.65;;
23496;SDS011;11925;48.122;11.560;2024-03-06T12:52:27;3.03;;;1.65;;
23496;SDS011;11925;48.122;11.560;2024-03-06T12:54:56;3.65;;;1.58;;
23496;SDS011;11925;48.122;11.560;2024-03-06T12:57:26;2.67;;;1.60;;
23496;SDS011;11925;48.122;11.560;2024-03-06T12:59:55;2.20;;;1.67;;
23496;SDS011;11925;48.122;11.560;2024-03-06T13:02:24;3.55;;;1.90;;
23496;SDS011;11925;48.122;11.560;2024-03-06T13:04:53;4.53;;;1.95;;
23496;SDS011;11925;48.122;11.560;2024-03-06T13:07:22;2.65;;;1.83;;
23496;SDS011;11925;48.122;11.560;2024-03-06T13:09:53;3.40;;;2.00;;
23496;SDS011;11925;48.122;11.560;2024-03-06T13:12:22;2.63;;;1.60;;
23496;SDS011;11925;48.122;11.560;2024-03-06T13:14:52;3.63;;;2.10;;
23496;SDS011;11925;48.122;11.560;2024-03-06T13:17:21;4.05;;;1.90;;
23496;SDS011;11925;48.122;11.560;2024-03-06T13:19:50;3.35;;;1.70;;
23496;SDS011;11925;48.122;11.560;2024-03-06T13:22:18;3.28;;;1.90;;
23496;SDS011;11925;48.122;11.560;2024-03-06T13:24:47;3.00;;;1.77;;
23496;SDS011;11925;48.122;11.560;2024-03-06T13:27:16;3.05;;;1.70;;
23496;SDS011;11925;48.122;11.560;2024-03-06T13:29:45;4.05;;;1.95;;
23496;SDS011;11925;48.122;11.560;2024-03-06T13:32:15;2.55;;;1.58;;
23496;SDS011;11925;48.122;11.560;2024-03-06T13:34:44;2.65;;;1.70;;
23496;SDS011;11925;48.122;11.560;2024-03-06T13:37:14;3.95;;;1.75;;
23496;SDS011;11925;48.122;11.560;2024-03-06T13:39:42;3.85;;;1.98;;
23496;SDS011;11925;48.122;11.560;2024-03-06T13:42:11;3.15;;;1.70;;
23496;SDS011;11925;48.122;11.560;2024-03-06T13:44:40;2.42;;;1.73;;
23496;SDS011;11925;48.122;11.560;2024-03-06T13:47:14;2.90;;;1.95;;
23496;SDS011;11925;48.122;11.560;2024-03-06T13:49:45;2.63;;;1.73;;
23496;SDS011;11925;48.122;11.560;2024-03-06T13:52:14;3.05;;;1.80;;
23496;SDS011;11925;48.122;11.560;2024-03-06T13:54:46;2.78;;;1.52;;
23496;SDS011;11925;48.122;11.560;2024-03-06T13:57:15;3.10;;;1.80;;
23496;SDS011;11925;48.122;11.560;2024-03-06T13:59:44;2.10;;;1.65;;
23496;SDS011;11925;48.122;11.560;2024-03-06T14:02:13;3.15;;;1.50;;
23496;SDS011;11925;48.122;11.560;2024-03-06T14:04:41;2.20;;;1.42;;
23496;SDS011;11925;48.122;11.560;2024-03-06T14:07:12;2.90;;;1.80;;
23496;SDS011;11925;48.122;11.560;2024-03-06T14:09:40;2.75;;;1.70;;
23496;SDS011;11925;48.122;11.560;2024-03-06T14:12:09;3.45;;;2.03;;
23496;SDS011;11925;48.122;11.560;2024-03-06T14:14:38;2.75;;;1.52;;
23496;SDS011;11925;48.122;11.560;2024-03-06T14:17:07;3.35;;;1.50;;
23496;SDS011;11925;48.122;11.560;2024-03-06T14:19:35;3.10;;;1.70;;
23496;SDS011;11925;48.122;11.560;2024-03-06T14:22:05;2.55;;;1.40;;
23496;SDS011;11925;48.122;11.560;2024-03-06T14:24:37;2.42;;;1.40;;
23496;SDS011;11925;48.122;11.560;2024-03-06T14:27:06;1.92;;;1.27;;
23496;SDS011;11925;48.122;11.560;2024-03-06T14:29:35;2.83;;;1.50;;
23496;SDS011;11925;48.122;11.560;2024-03-06T14:32:04;1.95;;;1.30;;
23496;SDS011;11925;48.122;11.560;2024-03-06T14:34:33;2.10;;;1.45;;
23496;SDS011;11925;48.122;11.560;2024-03-06T14:37:01;2.28;;;1.58;;
23496;SDS011;11925;48.122;11.560;2024-03-06T14:39:30;2.83;;;1.58;;
23496;SDS011;11925;48.122;11.560;2024-03-06T14:42:00;3.00;;;1.52;;
23496;SDS011;11925;48.122;11.560;2024-03-06T14:44:30;2.53;;;1.60;;
23496;SDS011;11925;48.122;11.560;2024-03-06T14:46:59;2.40;;;1.48;;
23496;SDS011;11925;48.122;11.560;2024-03-06T14:49:28;3.17;;;2.08;;
23496;SDS011;11925;48.122;11.560;2024-03-06T14:51:57;2.13;;;1.42;;